Nearby METAR Reports

 

KSJC - San Jose, California, USA
Distance from station: NØ 14km
Oppdatert: 29/06/2022 11:53
Klart
Klart
 Vind fra NNV
Vind: NNV 7 km/h
Temperatur: 14°C
Duggpunkt: 12°C
Fuktighet: 88%
Barometer: 1016.3 hPa
Clouds: Klart
Visibility: 16 km
2022/06/29 09:53 KSJC 290953Z AUTO 34004KT 10SM CLR 14/12 A3001 RMK AO2 SLP163 T01440117
KNUQ - Moffett Nas/Mtn, California, USA
Distance from station: N 14km
Oppdatert: 28/06/2022 13:55
NOT Current

 Vind fra calm
Vind: Stille
Temperatur: 15°C
Duggpunkt: 12°C
Fuktighet: 82%
Barometer: 1017.9 hPa
Visibility: 16 km
2022/06/28 11:55 KNUQ 281155Z AUTO 00000KT 10SM 15/12 A3006 RMK AO2
 
KPAO - Palo Alto, California, USA
Distance from station: NNV 23km
Oppdatert: 29/06/2022 05:47
NOT Current
Klart
Klart
 Vind fra NV
Vind: NV 15 km/h
Temperatur: 19°C
Duggpunkt: 8°C
Fuktighet: 49%
Barometer: 1015.9 hPa
Clouds: Klart
Visibility: 16 km
2022/06/29 03:47 KPAO 290347Z 31008KT 10SM SKC 19/08 A3000 RMK LAST
KRHV - San Jose/Reid, California, USA
Distance from station: ØNØ 19km
Oppdatert: 29/06/2022 06:55
NOT Current
Klart
Klart
 Vind fra VNV
Vind: VNV 11 km/h
Temperatur: 19°C
Duggpunkt: 10°C
Fuktighet: 56%
Barometer: 1016.9 hPa
Clouds: Klart
Visibility: 16 km
2022/06/29 04:55 KRHV 290455Z 30006KT 10SM SKC 19/10 A3003 RMK LAST
 
KOAK - Oakland, California, USA
Distance from station: NNV 50km
Oppdatert: 29/06/2022 11:53
Hovedsaklig skyet
Hovedsaklig skyet
 Vind fra calm
Vind: Stille
Temperatur: 14°C
Duggpunkt: 12°C
Fuktighet: 88%
Barometer: 1016.6 hPa
Clouds: Hovedsaklig skyet
Visibility: 16 km
Cloud details: Hovedsaklig skyet 274 m
Hovedsaklig skyet 366 m
2022/06/29 09:53 KOAK 290953Z 00000KT 10SM BKN009 BKN012 14/12 A3002 RMK AO2 SLP165 T01390117
KSQL - San Carlos Airpo, California, USA
Distance from station: NV 34km
Oppdatert: 29/06/2022 11:55
Klart
Klart
 Vind fra calm
Vind: Stille
Temperatur: 14°C
Duggpunkt: 10°C
Fuktighet: 77%
Barometer: 1016.6 hPa
Clouds: Klart
Visibility: 16 km
2022/06/29 09:55 KSQL 290955Z AUTO 00000KT 10SM CLR 14/10 A3002 RMK AO2
 
KSFO - San Francisco, California, USA
Distance from station: NV 49km
Oppdatert: 29/06/2022 11:56
Hovedsaklig skyet
Hovedsaklig skyet
 Vind fra V
Vind: V 22 km/h
Temperatur: 14°C
Duggpunkt: 11°C
Fuktighet: 82%
Barometer: 1016.3 hPa
Clouds: Hovedsaklig skyet
Visibility: 16 km
Cloud details: Few Clouds 183 m
Hovedsaklig skyet 274 m
2022/06/29 09:56 KSFO 290956Z 27012KT 10SM FEW006 BKN009 14/11 A3001 RMK AO2 SLP162 T01390111
KE16 - San Martin, California, USA
Distance from station: ØSØ 43km
Oppdatert: 29/06/2022 11:55
Klart
Klart
 Vind fra NNV
Vind: NNV 7 km/h
Temperatur: 15°C
Duggpunkt: 10°C
Fuktighet: 72%
Barometer: 1016.9 hPa
Clouds: Klart
Visibility: 16 km
2022/06/29 09:55 KE16 290955Z AUTO 33004KT 10SM CLR 15/10 A3003 RMK AO2 PWINO PNO
 
KWVI - Watsonville, California, USA
Distance from station: SSØ 44km
Oppdatert: 29/06/2022 11:53
Klart
Klart
 Vind fra calm
Vind: Stille
Temperatur: 11°C
Duggpunkt: 9°C
Fuktighet: 88%
Barometer: 1016.3 hPa
Clouds: Klart
Visibility: 16 km
2022/06/29 09:53 KWVI 290953Z AUTO 00000KT 10SM CLR 11/09 A3001 RMK AO2 SLP162 T01110094
KHAF - Half Moon Bay, California, USA
Distance from station: VNV 50km
Oppdatert: 29/06/2022 11:55
Mist, Overskyet
Mist, Overskyet
 Vind fra NNV
Vind: NNV 19 km/h
Temperatur: 13°C
Duggpunkt: 13°C
Fuktighet: 100%
Barometer: 1017.3 hPa
Oversikt: Mist
Clouds: Overskyet
Visibility: 8 km
Cloud details: Overskyet 183 m
2022/06/29 09:55 KHAF 290955Z AUTO 33010KT 5SM BR OVC006 13/13 A3004 RMK AO2
 
KHWD - Hayward, California, USA
Distance from station: N 44km
Oppdatert: 29/06/2022 11:54
Hovedsaklig skyet
Hovedsaklig skyet
 Vind fra V
Vind: V 20 km/h
Temperatur: 14°C
Duggpunkt: 12°C
Fuktighet: 88%
Barometer: 1016.3 hPa
Clouds: Hovedsaklig skyet
Visibility: 16 km
Cloud details: Hovedsaklig skyet 274 m
2022/06/29 09:54 KHWD 290954Z AUTO 27011KT 10SM BKN009 14/12 A3001 RMK AO2 SLP172 T01390117
KLVK - Livermore, California, USA
Distance from station: NNØ 51km
Oppdatert: 29/06/2022 11:53
Klart
Klart
 Vind fra VNV
Vind: VNV 13 km/h
Temperatur: 14°C
Duggpunkt: 11°C
Fuktighet: 82%
Barometer: 1015.6 hPa
Clouds: Klart
Visibility: 16 km
2022/06/29 09:53 KLVK 290953Z AUTO 30007KT 10SM CLR 14/11 A2999 RMK AO2 SLP151 T01390111